sensor_id;sensor_type;location;lat;lon;timestamp;temperature;humidity
71672;DHT22;67659;45.554;11.812;2023-03-21T00:00:37;9.30;99.90
71672;DHT22;67659;45.554;11.812;2023-03-21T00:03:03;9.40;99.90
71672;DHT22;67659;45.554;11.812;2023-03-21T00:05:29;9.30;99.90
71672;DHT22;67659;45.554;11.812;2023-03-21T00:07:55;9.30;99.90
71672;DHT22;67659;45.554;11.812;2023-03-21T00:10:21;9.20;99.90
71672;DHT22;67659;45.554;11.812;2023-03-21T00:12:47;9.20;99.90
71672;DHT22;67659;45.554;11.812;2023-03-21T00:15:20;9.20;99.90
71672;DHT22;67659;45.554;11.812;2023-03-21T00:17:46;9.20;99.90
71672;DHT22;67659;45.554;11.812;2023-03-21T00:20:15;9.00;99.90
71672;DHT22;67659;45.554;11.812;2023-03-21T00:22:41;9.10;99.90
71672;DHT22;67659;45.554;11.812;2023-03-21T00:25:09;9.00;99.90
71672;DHT22;67659;45.554;11.812;2023-03-21T00:27:35;9.10;99.90
71672;DHT22;67659;45.554;11.812;2023-03-21T00:30:02;9.20;99.90
71672;DHT22;67659;45.554;11.812;2023-03-21T00:32:28;9.10;99.90
71672;DHT22;67659;45.554;11.812;2023-03-21T00:34:54;9.00;99.90
71672;DHT22;67659;45.554;11.812;2023-03-21T00:37:19;8.90;99.90
71672;DHT22;67659;45.554;11.812;2023-03-21T00:39:46;9.20;99.90
71672;DHT22;67659;45.554;11.812;2023-03-21T00:42:16;9.10;99.90
71672;DHT22;67659;45.554;11.812;2023-03-21T00:44:42;9.20;99.90
71672;DHT22;67659;45.554;11.812;2023-03-21T00:47:11;9.20;99.90
71672;DHT22;67659;45.554;11.812;2023-03-21T00:49:37;9.10;99.90
71672;DHT22;67659;45.554;11.812;2023-03-21T00:52:05;9.30;99.90
71672;DHT22;67659;45.554;11.812;2023-03-21T00:54:32;9.30;99.90
71672;DHT22;67659;45.554;11.812;2023-03-21T00:56:58;9.00;99.90
71672;DHT22;67659;45.554;11.812;2023-03-21T00:59:24;8.60;99.90
71672;DHT22;67659;45.554;11.812;2023-03-21T01:01:50;8.30;99.90
71672;DHT22;67659;45.554;11.812;2023-03-21T01:04:18;8.20;99.90
71672;DHT22;67659;45.554;11.812;2023-03-21T01:06:46;8.30;99.90
71672;DHT22;67659;45.554;11.812;2023-03-21T01:09:18;8.40;99.90
71672;DHT22;67659;45.554;11.812;2023-03-21T01:11:44;8.60;99.90
71672;DHT22;67659;45.554;11.812;2023-03-21T01:14:11;8.60;99.90
71672;DHT22;67659;45.554;11.812;2023-03-21T01:16:38;8.60;99.90
71672;DHT22;67659;45.554;11.812;2023-03-21T01:19:05;8.70;99.90
71672;DHT22;67659;45.554;11.812;2023-03-21T01:21:31;8.80;99.90
71672;DHT22;67659;45.554;11.812;2023-03-21T01:23:58;8.80;99.90
71672;DHT22;67659;45.554;11.812;2023-03-21T01:26:23;8.70;99.90
71672;DHT22;67659;45.554;11.812;2023-03-21T01:28:49;8.60;99.90
71672;DHT22;67659;45.554;11.812;2023-03-21T01:31:16;8.50;99.90
71672;DHT22;67659;45.554;11.812;2023-03-21T01:33:42;8.50;99.90
71672;DHT22;67659;45.554;11.812;2023-03-21T01:36:16;8.60;99.90
71672;DHT22;67659;45.554;11.812;2023-03-21T01:38:43;8.70;99.90
71672;DHT22;67659;45.554;11.812;2023-03-21T01:41:27;8.60;99.90
71672;DHT22;67659;45.554;11.812;2023-03-21T01:43:53;8.40;99.90
71672;DHT22;67659;45.554;11.812;2023-03-21T01:46:33;8.50;99.90
71672;DHT22;67659;45.554;11.812;2023-03-21T01:49:08;8.70;99.90
71672;DHT22;67659;45.554;11.812;2023-03-21T01:51:39;8.70;99.90
71672;DHT22;67659;45.554;11.812;2023-03-21T01:54:10;8.70;99.90
71672;DHT22;67659;45.554;11.812;2023-03-21T01:56:39;8.70;99.90
71672;DHT22;67659;45.554;11.812;2023-03-21T01:59:26;8.70;99.90
71672;DHT22;67659;45.554;11.812;2023-03-21T02:01:55;8.80;99.90
71672;DHT22;67659;45.554;11.812;2023-03-21T02:04:24;9.00;99.90
71672;DHT22;67659;45.554;11.812;2023-03-21T02:06:58;8.80;99.90
71672;DHT22;67659;45.554;11.812;2023-03-21T02:09:29;8.70;99.90
71672;DHT22;67659;45.554;11.812;2023-03-21T02:11:57;8.60;99.90
71672;DHT22;67659;45.554;11.812;2023-03-21T02:14:23;8.50;99.90
71672;DHT22;67659;45.554;11.812;2023-03-21T02:41:12;8.80;99.90
71672;DHT22;67659;45.554;11.812;2023-03-21T02:46:31;8.80;99.90
71672;DHT22;67659;45.554;11.812;2023-03-21T02:51:36;8.20;99.90
71672;DHT22;67659;45.554;11.812;2023-03-21T02:54:12;7.80;99.90
71672;DHT22;67659;45.554;11.812;2023-03-21T02:56:39;7.60;99.90
71672;DHT22;67659;45.554;11.812;2023-03-21T02:59:06;7.80;99.90
71672;DHT22;67659;45.554;11.812;2023-03-21T03:01:33;8.00;99.90
71672;DHT22;67659;45.554;11.812;2023-03-21T03:03:59;7.90;99.90
71672;DHT22;67659;45.554;11.812;2023-03-21T03:06:30;7.90;99.90
71672;DHT22;67659;45.554;11.812;2023-03-21T03:11:42;7.80;99.90
71672;DHT22;67659;45.554;11.812;2023-03-21T03:14:23;7.80;99.90
71672;DHT22;67659;45.554;11.812;2023-03-21T03:17:30;7.80;99.90
71672;DHT22;67659;45.554;11.812;2023-03-21T03:25:59;8.00;99.90
71672;DHT22;67659;45.554;11.812;2023-03-21T03:28:32;8.10;99.90
71672;DHT22;67659;45.554;11.812;2023-03-21T03:31:00;8.30;99.90
71672;DHT22;67659;45.554;11.812;2023-03-21T03:33:26;8.30;99.90
71672;DHT22;67659;45.554;11.812;2023-03-21T03:35:56;8.30;99.90
71672;DHT22;67659;45.554;11.812;2023-03-21T03:38:24;8.50;99.90
71672;DHT22;67659;45.554;11.812;2023-03-21T03:41:00;8.40;99.90
71672;DHT22;67659;45.554;11.812;2023-03-21T03:43:48;8.40;99.90
71672;DHT22;67659;45.554;11.812;2023-03-21T03:49:44;8.20;99.90
71672;DHT22;67659;45.554;11.812;2023-03-21T03:52:18;8.40;99.90
71672;DHT22;67659;45.554;11.812;2023-03-21T03:54:47;8.40;99.90
71672;DHT22;67659;45.554;11.812;2023-03-21T03:57:14;8.00;99.90
71672;DHT22;67659;45.554;11.812;2023-03-21T03:59:43;7.40;99.90
71672;DHT22;67659;45.554;11.812;2023-03-21T04:02:09;7.30;99.90
71672;DHT22;67659;45.554;11.812;2023-03-21T04:04:35;7.40;99.90
71672;DHT22;67659;45.554;11.812;2023-03-21T04:07:01;7.60;99.90
71672;DHT22;67659;45.554;11.812;2023-03-21T04:09:28;7.70;99.90
71672;DHT22;67659;45.554;11.812;2023-03-21T04:11:54;7.90;99.90
71672;DHT22;67659;45.554;11.812;2023-03-21T04:14:20;7.90;99.90
71672;DHT22;67659;45.554;11.812;2023-03-21T04:16:46;7.90;99.90
71672;DHT22;67659;45.554;11.812;2023-03-21T04:19:12;7.90;99.90
71672;DHT22;67659;45.554;11.812;2023-03-21T04:21:38;8.00;99.90
71672;DHT22;67659;45.554;11.812;2023-03-21T04:24:04;7.90;99.90
71672;DHT22;67659;45.554;11.812;2023-03-21T04:26:32;8.00;99.90
71672;DHT22;67659;45.554;11.812;2023-03-21T04:29:00;8.00;99.90
71672;DHT22;67659;45.554;11.812;2023-03-21T04:31:26;8.10;99.90
71672;DHT22;67659;45.554;11.812;2023-03-21T04:33:53;8.10;99.90
71672;DHT22;67659;45.554;11.812;2023-03-21T04:36:20;8.20;99.90
71672;DHT22;67659;45.554;11.812;2023-03-21T04:38:55;8.30;99.90
71672;DHT22;67659;45.554;11.812;2023-03-21T04:41:28;8.10;99.90
71672;DHT22;67659;45.554;11.812;2023-03-21T04:43:55;8.30;99.90
71672;DHT22;67659;45.554;11.812;2023-03-21T04:46:22;8.30;99.90
71672;DHT22;67659;45.554;11.812;2023-03-21T04:48:47;8.10;99.90
71672;DHT22;67659;45.554;11.812;2023-03-21T04:51:15;8.00;99.90
71672;DHT22;67659;45.554;11.812;2023-03-21T04:53:40;8.00;99.90
71672;DHT22;67659;45.554;11.812;2023-03-21T04:56:10;8.00;99.90
71672;DHT22;67659;45.554;11.812;2023-03-21T04:58:37;8.00;99.90
71672;DHT22;67659;45.554;11.812;2023-03-21T05:01:05;8.20;99.90
71672;DHT22;67659;45.554;11.812;2023-03-21T05:03:31;8.30;99.90
71672;DHT22;67659;45.554;11.812;2023-03-21T05:05:59;8.20;99.90
71672;DHT22;67659;45.554;11.812;2023-03-21T05:08:25;7.90;99.90
71672;DHT22;67659;45.554;11.812;2023-03-21T05:10:51;7.90;99.90
71672;DHT22;67659;45.554;11.812;2023-03-21T05:13:17;7.80;99.90
71672;DHT22;67659;45.554;11.812;2023-03-21T05:15:43;7.90;99.90
71672;DHT22;67659;45.554;11.812;2023-03-21T05:18:09;7.80;99.90
71672;DHT22;67659;45.554;11.812;2023-03-21T05:20:41;7.90;99.90
71672;DHT22;67659;45.554;11.812;2023-03-21T05:23:11;8.20;99.90
71672;DHT22;67659;45.554;11.812;2023-03-21T05:25:38;8.00;99.90
71672;DHT22;67659;45.554;11.812;2023-03-21T05:28:05;8.20;99.90
71672;DHT22;67659;45.554;11.812;2023-03-21T05:30:32;8.30;99.90
71672;DHT22;67659;45.554;11.812;2023-03-21T05:32:58;8.20;99.90
71672;DHT22;67659;45.554;11.812;2023-03-21T05:35:25;8.20;99.90
71672;DHT22;67659;45.554;11.812;2023-03-21T05:37:51;8.30;99.90
71672;DHT22;67659;45.554;11.812;2023-03-21T05:40:18;8.40;99.90
71672;DHT22;67659;45.554;11.812;2023-03-21T05:42:45;8.50;99.90
71672;DHT22;67659;45.554;11.812;2023-03-21T05:45:11;8.60;99.90
71672;DHT22;67659;45.554;11.812;2023-03-21T05:47:37;8.60;99.90
71672;DHT22;67659;45.554;11.812;2023-03-21T05:50:03;8.60;99.90
71672;DHT22;67659;45.554;11.812;2023-03-21T05:52:29;8.60;99.90
71672;DHT22;67659;45.554;11.812;2023-03-21T05:54:55;8.80;99.90
71672;DHT22;67659;45.554;11.812;2023-03-21T05:57:21;9.10;99.90
71672;DHT22;67659;45.554;11.812;2023-03-21T05:59:47;9.30;99.90
71672;DHT22;67659;45.554;11.812;2023-03-21T06:02:13;9.40;99.90
71672;DHT22;67659;45.554;11.812;2023-03-21T06:04:38;9.80;99.90
71672;DHT22;67659;45.554;11.812;2023-03-21T06:07:04;10.00;99.90
71672;DHT22;67659;45.554;11.812;2023-03-21T06:09:30;10.60;99.90
71672;DHT22;67659;45.554;11.812;2023-03-21T06:11:56;11.10;99.90
71672;DHT22;67659;45.554;11.812;2023-03-21T06:14:23;11.70;99.90
71672;DHT22;67659;45.554;11.812;2023-03-21T06:16:48;12.40;99.90
71672;DHT22;67659;45.554;11.812;2023-03-21T06:19:15;12.70;99.90
71672;DHT22;67659;45.554;11.812;2023-03-21T06:21:41;13.20;99.90
71672;DHT22;67659;45.554;11.812;2023-03-21T06:24:08;13.40;99.80
71672;DHT22;67659;45.554;11.812;2023-03-21T06:26:33;13.40;99.20
71672;DHT22;67659;45.554;11.812;2023-03-21T06:28:59;13.60;99.40
71672;DHT22;67659;45.554;11.812;2023-03-21T06:31:25;13.80;87.80
71672;DHT22;67659;45.554;11.812;2023-03-21T06:33:51;14.10;87.10
71672;DHT22;67659;45.554;11.812;2023-03-21T06:36:18;14.40;85.50
71672;DHT22;67659;45.554;11.812;2023-03-21T06:38:44;14.80;86.50
71672;DHT22;67659;45.554;11.812;2023-03-21T06:41:11;15.30;85.40
71672;DHT22;67659;45.554;11.812;2023-03-21T06:43:37;15.60;82.90
71672;DHT22;67659;45.554;11.812;2023-03-21T06:46:03;16.20;81.90
71672;DHT22;67659;45.554;11.812;2023-03-21T06:48:30;16.70;81.30
71672;DHT22;67659;45.554;11.812;2023-03-21T06:50:56;17.10;80.70
71672;DHT22;67659;45.554;11.812;2023-03-21T06:53:23;17.50;80.20
71672;DHT22;67659;45.554;11.812;2023-03-21T06:55:53;17.70;80.40
71672;DHT22;67659;45.554;11.812;2023-03-21T06:58:20;18.20;78.50
71672;DHT22;67659;45.554;11.812;2023-03-21T07:00:46;18.10;80.10
71672;DHT22;67659;45.554;11.812;2023-03-21T07:03:13;18.20;78.60
71672;DHT22;67659;45.554;11.812;2023-03-21T07:05:39;18.00;80.60
71672;DHT22;67659;45.554;11.812;2023-03-21T07:08:06;17.80;80.40
71672;DHT22;67659;45.554;11.812;2023-03-21T07:10:38;18.00;80.30
71672;DHT22;67659;45.554;11.812;2023-03-21T07:13:04;18.30;78.60
71672;DHT22;67659;45.554;11.812;2023-03-21T07:15:30;18.70;80.00
71672;DHT22;67659;45.554;11.812;2023-03-21T07:17:57;19.70;77.90
71672;DHT22;67659;45.554;11.812;2023-03-21T07:20:23;20.40;75.10
71672;DHT22;67659;45.554;11.812;2023-03-21T07:22:51;19.60;75.50
71672;DHT22;67659;45.554;11.812;2023-03-21T07:25:17;20.40;74.40
71672;DHT22;67659;45.554;11.812;2023-03-21T07:27:44;21.00;71.50
71672;DHT22;67659;45.554;11.812;2023-03-21T07:30:11;21.70;71.10
71672;DHT22;67659;45.554;11.812;2023-03-21T07:32:38;22.00;66.20
71672;DHT22;67659;45.554;11.812;2023-03-21T07:35:05;22.50;65.10
71672;DHT22;67659;45.554;11.812;2023-03-21T07:37:31;22.80;65.10
71672;DHT22;67659;45.554;11.812;2023-03-21T07:39:57;22.90;61.80
71672;DHT22;67659;45.554;11.812;2023-03-21T07:42:23;23.00;61.90
71672;DHT22;67659;45.554;11.812;2023-03-21T07:44:48;23.20;62.20
71672;DHT22;67659;45.554;11.812;2023-03-21T07:47:15;23.60;59.80
71672;DHT22;67659;45.554;11.812;2023-03-21T07:49:41;23.50;60.40
71672;DHT22;67659;45.554;11.812;2023-03-21T07:52:07;24.00;58.00
71672;DHT22;67659;45.554;11.812;2023-03-21T07:54:32;24.60;57.60
71672;DHT22;67659;45.554;11.812;2023-03-21T07:56:59;24.50;54.40
71672;DHT22;67659;45.554;11.812;2023-03-21T07:59:25;24.50;55.80
71672;DHT22;67659;45.554;11.812;2023-03-21T08:01:50;24.70;55.90
71672;DHT22;67659;45.554;11.812;2023-03-21T08:04:16;24.60;57.50
71672;DHT22;67659;45.554;11.812;2023-03-21T08:06:42;24.70;55.30
71672;DHT22;67659;45.554;11.812;2023-03-21T08:09:08;24.60;56.50
71672;DHT22;67659;45.554;11.812;2023-03-21T08:11:33;24.60;54.30
71672;DHT22;67659;45.554;11.812;2023-03-21T08:13:59;24.60;58.50
71672;DHT22;67659;45.554;11.812;2023-03-21T08:16:26;24.80;56.40
71672;DHT22;67659;45.554;11.812;2023-03-21T08:18:52;24.80;55.20
71672;DHT22;67659;45.554;11.812;2023-03-21T08:21:18;25.00;55.30
71672;DHT22;67659;45.554;11.812;2023-03-21T08:23:44;24.80;55.60
71672;DHT22;67659;45.554;11.812;2023-03-21T08:26:09;24.80;53.90
71672;DHT22;67659;45.554;11.812;2023-03-21T08:28:36;25.50;52.60
71672;DHT22;67659;45.554;11.812;2023-03-21T08:31:07;25.20;54.80
71672;DHT22;67659;45.554;11.812;2023-03-21T08:33:33;24.60;51.80
71672;DHT22;67659;45.554;11.812;2023-03-21T08:36:00;24.20;55.90
71672;DHT22;67659;45.554;11.812;2023-03-21T08:38:26;24.30;54.70
71672;DHT22;67659;45.554;11.812;2023-03-21T08:40:58;25.10;51.80
71672;DHT22;67659;45.554;11.812;2023-03-21T08:43:25;23.70;52.20
71672;DHT22;67659;45.554;11.812;2023-03-21T08:45:51;24.50;54.30
71672;DHT22;67659;45.554;11.812;2023-03-21T08:48:18;25.30;51.80
71672;DHT22;67659;45.554;11.812;2023-03-21T08:50:43;25.20;52.50
71672;DHT22;67659;45.554;11.812;2023-03-21T08:53:09;26.00;51.70
71672;DHT22;67659;45.554;11.812;2023-03-21T08:55:35;28.40;41.40
71672;DHT22;67659;45.554;11.812;2023-03-21T08:58:01;28.90;41.40
71672;DHT22;67659;45.554;11.812;2023-03-21T09:00:27;29.10;39.80
71672;DHT22;67659;45.554;11.812;2023-03-21T09:02:53;28.40;42.60
71672;DHT22;67659;45.554;11.812;2023-03-21T09:05:19;28.40;42.40
71672;DHT22;67659;45.554;11.812;2023-03-21T09:07:46;28.70;43.00
71672;DHT22;67659;45.554;11.812;2023-03-21T09:10:15;27.80;43.10
71672;DHT22;67659;45.554;11.812;2023-03-21T09:12:41;27.80;43.50
71672;DHT22;67659;45.554;11.812;2023-03-21T09:15:09;28.70;40.60
71672;DHT22;67659;45.554;11.812;2023-03-21T09:17:37;28.00;41.20
71672;DHT22;67659;45.554;11.812;2023-03-21T09:20:10;29.80;38.00
71672;DHT22;67659;45.554;11.812;2023-03-21T09:22:45;31.60;34.40
71672;DHT22;67659;45.554;11.812;2023-03-21T09:25:12;32.30;33.40
71672;DHT22;67659;45.554;11.812;2023-03-21T09:27:39;33.20;32.00
71672;DHT22;67659;45.554;11.812;2023-03-21T09:30:07;32.80;33.20
71672;DHT22;67659;45.554;11.812;2023-03-21T09:32:34;31.80;35.40
71672;DHT22;67659;45.554;11.812;2023-03-21T09:34:59;30.60;34.50
71672;DHT22;67659;45.554;11.812;2023-03-21T09:37:25;30.50;34.80
71672;DHT22;67659;45.554;11.812;2023-03-21T09:39:51;30.70;35.40
71672;DHT22;67659;45.554;11.812;2023-03-21T09:45:06;30.20;38.40
71672;DHT22;67659;45.554;11.812;2023-03-21T09:47:42;30.80;35.80
71672;DHT22;67659;45.554;11.812;2023-03-21T09:50:40;29.80;36.80
71672;DHT22;67659;45.554;11.812;2023-03-21T09:55:43;30.00;36.60
71672;DHT22;67659;45.554;11.812;2023-03-21T09:58:36;30.50;36.30
71672;DHT22;67659;45.554;11.812;2023-03-21T10:01:32;30.90;34.60
71672;DHT22;67659;45.554;11.812;2023-03-21T10:04:02;31.10;34.10
71672;DHT22;67659;45.554;11.812;2023-03-21T10:06:29;32.50;31.40
71672;DHT22;67659;45.554;11.812;2023-03-21T10:09:26;31.50;31.20
71672;DHT22;67659;45.554;11.812;2023-03-21T10:12:12;31.80;32.10
71672;DHT22;67659;45.554;11.812;2023-03-21T10:14:43;33.40;27.30
71672;DHT22;67659;45.554;11.812;2023-03-21T10:19:36;32.70;32.60
71672;DHT22;67659;45.554;11.812;2023-03-21T10:22:02;33.70;29.20
71672;DHT22;67659;45.554;11.812;2023-03-21T10:24:30;34.90;25.90
71672;DHT22;67659;45.554;11.812;2023-03-21T10:26:57;34.70;26.40
71672;DHT22;67659;45.554;11.812;2023-03-21T10:29:27;34.00;28.60
71672;DHT22;67659;45.554;11.812;2023-03-21T10:31:54;34.20;29.40
71672;DHT22;67659;45.554;11.812;2023-03-21T10:34:39;35.00;27.40
71672;DHT22;67659;45.554;11.812;2023-03-21T10:37:06;36.50;25.00
71672;DHT22;67659;45.554;11.812;2023-03-21T10:39:39;36.90;23.40
71672;DHT22;67659;45.554;11.812;2023-03-21T10:42:06;35.80;24.60
71672;DHT22;67659;45.554;11.812;2023-03-21T10:44:37;34.40;27.10
71672;DHT22;67659;45.554;11.812;2023-03-21T10:47:04;35.40;25.40
71672;DHT22;67659;45.554;11.812;2023-03-21T10:49:30;35.20;25.80
71672;DHT22;67659;45.554;11.812;2023-03-21T10:51:58;35.80;25.00
71672;DHT22;67659;45.554;11.812;2023-03-21T10:54:31;36.20;23.20
71672;DHT22;67659;45.554;11.812;2023-03-21T10:57:10;36.10;23.50
71672;DHT22;67659;45.554;11.812;2023-03-21T10:59:43;35.90;23.30
71672;DHT22;67659;45.554;11.812;2023-03-21T11:04:50;35.60;24.70
71672;DHT22;67659;45.554;11.812;2023-03-21T11:07:18;35.70;21.40
71672;DHT22;67659;45.554;11.812;2023-03-21T11:09:47;36.90;21.50
71672;DHT22;67659;45.554;11.812;2023-03-21T11:12:37;37.50;21.20
71672;DHT22;67659;45.554;11.812;2023-03-21T11:15:25;37.10;21.80
71672;DHT22;67659;45.554;11.812;2023-03-21T11:17:52;34.80;24.80
71672;DHT22;67659;45.554;11.812;2023-03-21T11:20:18;34.10;27.20
71672;DHT22;67659;45.554;11.812;2023-03-21T11:22:45;34.50;26.60
71672;DHT22;67659;45.554;11.812;2023-03-21T11:25:38;34.00;24.80
71672;DHT22;67659;45.554;11.812;2023-03-21T11:28:16;36.20;22.50
71672;DHT22;67659;45.554;11.812;2023-03-21T11:30:57;34.90;24.70
71672;DHT22;67659;45.554;11.812;2023-03-21T11:33:38;34.40;23.90
71672;DHT22;67659;45.554;11.812;2023-03-21T11:36:23;33.80;26.50
71672;DHT22;67659;45.554;11.812;2023-03-21T11:38:52;33.90;26.20
71672;DHT22;67659;45.554;11.812;2023-03-21T11:41:39;33.10;24.30
71672;DHT22;67659;45.554;11.812;2023-03-21T11:44:06;33.90;26.70
71672;DHT22;67659;45.554;11.812;2023-03-21T11:46:47;32.90;27.10
71672;DHT22;67659;45.554;11.812;2023-03-21T11:49:13;33.00;29.50
71672;DHT22;67659;45.554;11.812;2023-03-21T11:54:43;34.10;23.50
71672;DHT22;67659;45.554;11.812;2023-03-21T12:00:17;33.40;23.90
71672;DHT22;67659;45.554;11.812;2023-03-21T12:05:41;35.70;21.70
71672;DHT22;67659;45.554;11.812;2023-03-21T12:11:14;34.50;24.10
71672;DHT22;67659;45.554;11.812;2023-03-21T12:14:00;34.80;23.80
71672;DHT22;67659;45.554;11.812;2023-03-21T12:16:39;34.80;22.80
71672;DHT22;67659;45.554;11.812;2023-03-21T12:24:23;36.40;21.40
71672;DHT22;67659;45.554;11.812;2023-03-21T12:32:14;34.20;20.20
71672;DHT22;67659;45.554;11.812;2023-03-21T12:43:28;33.70;24.10
71672;DHT22;67659;45.554;11.812;2023-03-21T12:46:09;33.40;24.10
71672;DHT22;67659;45.554;11.812;2023-03-21T12:48:46;34.40;24.10
71672;DHT22;67659;45.554;11.812;2023-03-21T12:51:18;32.90;26.30
71672;DHT22;67659;45.554;11.812;2023-03-21T13:01:47;31.80;26.50
71672;DHT22;67659;45.554;11.812;2023-03-21T13:06:47;32.20;24.90
71672;DHT22;67659;45.554;11.812;2023-03-21T13:09:19;32.30;27.30
71672;DHT22;67659;45.554;11.812;2023-03-21T13:11:49;32.40;25.80
71672;DHT22;67659;45.554;11.812;2023-03-21T13:14:25;32.10;25.40
71672;DHT22;67659;45.554;11.812;2023-03-21T13:20:20;33.00;25.30
71672;DHT22;67659;45.554;11.812;2023-03-21T13:22:47;32.40;25.70
71672;DHT22;67659;45.554;11.812;2023-03-21T13:25:20;32.70;28.20
71672;DHT22;67659;45.554;11.812;2023-03-21T13:27:54;32.70;24.80
71672;DHT22;67659;45.554;11.812;2023-03-21T13:30:23;31.80;25.90
71672;DHT22;67659;45.554;11.812;2023-03-21T13:33:33;30.70;26.70
71672;DHT22;67659;45.554;11.812;2023-03-21T13:35:44;30.80;25.90
71672;DHT22;67659;45.554;11.812;2023-03-21T13:38:25;30.90;25.60
71672;DHT22;67659;45.554;11.812;2023-03-21T13:41:14;31.10;24.80
71672;DHT22;67659;45.554;11.812;2023-03-21T13:43:47;30.40;25.40
71672;DHT22;67659;45.554;11.812;2023-03-21T13:51:52;31.90;25.70
71672;DHT22;67659;45.554;11.812;2023-03-21T13:57:04;31.30;25.40
71672;DHT22;67659;45.554;11.812;2023-03-21T14:02:29;32.00;25.70
71672;DHT22;67659;45.554;11.812;2023-03-21T14:05:05;32.10;23.90
71672;DHT22;67659;45.554;11.812;2023-03-21T14:07:43;31.30;25.70
71672;DHT22;67659;45.554;11.812;2023-03-21T14:10:41;31.30;25.80
71672;DHT22;67659;45.554;11.812;2023-03-21T14:13:10;30.00;24.50
71672;DHT22;67659;45.554;11.812;2023-03-21T14:15:53;29.60;27.50
71672;DHT22;67659;45.554;11.812;2023-03-21T14:18:21;29.90;26.60
71672;DHT22;67659;45.554;11.812;2023-03-21T14:20:55;29.30;25.20
71672;DHT22;67659;45.554;11.812;2023-03-21T14:23:22;29.60;27.70
71672;DHT22;67659;45.554;11.812;2023-03-21T14:25:49;29.10;24.70
71672;DHT22;67659;45.554;11.812;2023-03-21T14:28:24;29.30;24.30
71672;DHT22;67659;45.554;11.812;2023-03-21T14:30:53;29.30;25.10
71672;DHT22;67659;45.554;11.812;2023-03-21T14:35:58;29.50;25.30
71672;DHT22;67659;45.554;11.812;2023-03-21T14:38:32;29.20;25.00
71672;DHT22;67659;45.554;11.812;2023-03-21T14:40:59;28.80;26.10
71672;DHT22;67659;45.554;11.812;2023-03-21T14:43:25;28.40;25.70
71672;DHT22;67659;45.554;11.812;2023-03-21T14:45:53;28.40;26.90
71672;DHT22;67659;45.554;11.812;2023-03-21T14:48:21;28.50;27.00
71672;DHT22;67659;45.554;11.812;2023-03-21T14:50:57;28.60;27.50
71672;DHT22;67659;45.554;11.812;2023-03-21T14:53:28;28.40;26.00
71672;DHT22;67659;45.554;11.812;2023-03-21T14:56:21;27.80;26.40
71672;DHT22;67659;45.554;11.812;2023-03-21T14:58:48;27.20;25.70
71672;DHT22;67659;45.554;11.812;2023-03-21T15:01:31;27.20;26.20
71672;DHT22;67659;45.554;11.812;2023-03-21T15:04:03;27.20;26.70
71672;DHT22;67659;45.554;11.812;2023-03-21T15:06:31;27.20;27.70
71672;DHT22;67659;45.554;11.812;2023-03-21T15:09:00;26.70;26.60
71672;DHT22;67659;45.554;11.812;2023-03-21T15:11:35;26.70;28.50
71672;DHT22;67659;45.554;11.812;2023-03-21T15:14:07;26.70;28.70
71672;DHT22;67659;45.554;11.812;2023-03-21T15:16:34;26.30;30.10
71672;DHT22;67659;45.554;11.812;2023-03-21T15:19:01;25.30;31.20
71672;DHT22;67659;45.554;11.812;2023-03-21T15:21:35;24.50;32.30
71672;DHT22;67659;45.554;11.812;2023-03-21T15:24:13;23.90;31.60
71672;DHT22;67659;45.554;11.812;2023-03-21T15:26:44;23.80;32.80
71672;DHT22;67659;45.554;11.812;2023-03-21T15:29:11;23.90;35.60
71672;DHT22;67659;45.554;11.812;2023-03-21T15:31:39;23.90;34.00
71672;DHT22;67659;45.554;11.812;2023-03-21T15:34:06;23.80;34.50
71672;DHT22;67659;45.554;11.812;2023-03-21T15:36:36;23.70;34.20
71672;DHT22;67659;45.554;11.812;2023-03-21T15:39:13;23.40;35.60
71672;DHT22;67659;45.554;11.812;2023-03-21T15:41:39;23.20;38.50
71672;DHT22;67659;45.554;11.812;2023-03-21T15:46:43;23.30;38.40
71672;DHT22;67659;45.554;11.812;2023-03-21T15:49:30;23.20;41.80
71672;DHT22;67659;45.554;11.812;2023-03-21T15:52:14;23.20;37.60
71672;DHT22;67659;45.554;11.812;2023-03-21T15:54:43;22.90;38.10
71672;DHT22;67659;45.554;11.812;2023-03-21T15:57:30;22.80;40.00
71672;DHT22;67659;45.554;11.812;2023-03-21T16:02:44;22.70;40.80
71672;DHT22;67659;45.554;11.812;2023-03-21T16:05:24;22.60;42.00
71672;DHT22;67659;45.554;11.812;2023-03-21T16:07:50;22.60;42.40
71672;DHT22;67659;45.554;11.812;2023-03-21T16:10:42;22.50;43.00
71672;DHT22;67659;45.554;11.812;2023-03-21T16:13:10;22.50;45.70
71672;DHT22;67659;45.554;11.812;2023-03-21T16:15:38;22.40;43.80
71672;DHT22;67659;45.554;11.812;2023-03-21T16:18:05;22.20;43.10
71672;DHT22;67659;45.554;11.812;2023-03-21T16:20:35;22.10;44.10
71672;DHT22;67659;45.554;11.812;2023-03-21T16:23:02;22.00;45.60
71672;DHT22;67659;45.554;11.812;2023-03-21T16:25:29;21.90;44.80
71672;DHT22;67659;45.554;11.812;2023-03-21T16:27:56;21.80;44.10
71672;DHT22;67659;45.554;11.812;2023-03-21T16:30:22;21.70;44.30
71672;DHT22;67659;45.554;11.812;2023-03-21T16:32:48;21.50;44.30
71672;DHT22;67659;45.554;11.812;2023-03-21T16:35:15;21.40;45.10
71672;DHT22;67659;45.554;11.812;2023-03-21T16:37:41;21.30;45.10
71672;DHT22;67659;45.554;11.812;2023-03-21T16:42:52;21.30;45.80
71672;DHT22;67659;45.554;11.812;2023-03-21T16:45:18;21.30;45.80
71672;DHT22;67659;45.554;11.812;2023-03-21T16:47:43;21.50;46.10
71672;DHT22;67659;45.554;11.812;2023-03-21T16:50:33;21.30;45.30
71672;DHT22;67659;45.554;11.812;2023-03-21T16:53:00;21.30;46.60
71672;DHT22;67659;45.554;11.812;2023-03-21T16:55:27;21.20;46.40
71672;DHT22;67659;45.554;11.812;2023-03-21T16:57:53;21.10;46.80
71672;DHT22;67659;45.554;11.812;2023-03-21T17:00:23;21.20;46.50
71672;DHT22;67659;45.554;11.812;2023-03-21T17:02:50;21.10;47.30
71672;DHT22;67659;45.554;11.812;2023-03-21T17:05:18;20.90;47.10
71672;DHT22;67659;45.554;11.812;2023-03-21T17:07:44;20.90;47.60
71672;DHT22;67659;45.554;11.812;2023-03-21T17:10:29;20.90;48.50
71672;DHT22;67659;45.554;11.812;2023-03-21T17:12:55;20.90;49.10
71672;DHT22;67659;45.554;11.812;2023-03-21T17:15:21;20.90;48.10
71672;DHT22;67659;45.554;11.812;2023-03-21T17:17:47;20.70;49.00
71672;DHT22;67659;45.554;11.812;2023-03-21T17:20:27;20.80;49.30
71672;DHT22;67659;45.554;11.812;2023-03-21T17:22:53;20.70;50.10
71672;DHT22;67659;45.554;11.812;2023-03-21T17:25:19;20.60;49.50
71672;DHT22;67659;45.554;11.812;2023-03-21T17:27:46;20.50;49.50
71672;DHT22;67659;45.554;11.812;2023-03-21T17:30:24;20.50;50.10
71672;DHT22;67659;45.554;11.812;2023-03-21T17:32:51;20.40;50.40
71672;DHT22;67659;45.554;11.812;2023-03-21T17:35:17;20.30;50.30